createdAt,value
2022-10-21T00:04:06.115Z,95585.22
2022-10-21T00:09:07.558Z,95607.16
2022-10-21T00:14:08.958Z,95622.75
2022-10-21T00:19:10.362Z,95627.25
2022-10-21T00:24:11.765Z,95600.53
2022-10-21T00:29:13.193Z,95577.63
2022-10-21T00:34:14.666Z,95564.16
2022-10-21T00:39:16.397Z,95542.91
2022-10-21T00:44:17.813Z,95530.91
2022-10-21T00:49:42.267Z,95523.81
2022-10-21T00:54:46.243Z,95523.97
2022-10-21T00:59:53.666Z,95522.78
2022-10-21T01:04:59.298Z,95539.25
2022-10-21T01:10:00.706Z,95530.47
2022-10-21T01:15:39.960Z,95539.94
2022-10-21T01:21:00.071Z,95552.56
2022-10-21T01:26:19.404Z,95561.16
2022-10-21T01:31:29.953Z,95547.22
2022-10-21T01:37:10.345Z,95550.06
2022-10-21T01:42:30.610Z,95537.44
2022-10-21T01:47:36.383Z,95527.41
2022-10-21T01:52:41.310Z,95523.13
2022-10-21T01:57:49.201Z,95517.13
2022-10-21T02:02:50.725Z,95535.56
2022-10-21T02:07:52.140Z,95530.28
2022-10-21T02:12:57.306Z,95549.22
2022-10-21T02:18:06.848Z,95554.03
2022-10-21T02:23:13.305Z,95526.16
2022-10-21T02:28:15.022Z,95496.88
2022-10-21T02:33:27.620Z,95468.66
2022-10-21T02:38:37.456Z,95476.69
2022-10-21T02:43:43.743Z,95480.16
2022-10-21T02:48:47.855Z,95454.88
2022-10-21T02:53:49.246Z,95455.56
2022-10-21T02:58:50.647Z,95468.88
2022-10-21T03:03:52.016Z,95464.25
2022-10-21T03:08:53.613Z,95465.56
2022-10-21T03:13:55.136Z,95449.34
2022-10-21T03:18:56.579Z,95457.94
2022-10-21T03:23:57.986Z,95450.00
2022-10-21T03:28:59.398Z,95440.69
2022-10-21T03:34:00.773Z,95475.53
2022-10-21T03:39:02.177Z,95438.66
2022-10-21T03:44:03.762Z,95450.13
2022-10-21T03:49:08.555Z,95434.34
2022-10-21T03:54:13.471Z,95459.41
2022-10-21T03:59:15.026Z,95440.69
2022-10-21T04:04:16.479Z,95429.09
2022-10-21T04:09:18.022Z,95421.13
2022-10-21T04:14:19.498Z,95421.78
2022-10-21T04:19:21.128Z,95396.06
2022-10-21T04:24:22.551Z,95394.56
2022-10-21T04:29:23.978Z,95396.56
2022-10-21T04:34:25.377Z,95386.59
2022-10-21T04:39:26.820Z,95347.88
2022-10-21T04:44:28.225Z,95368.00
2022-10-21T04:49:29.597Z,95361.69
2022-10-21T04:54:31.053Z,95377.13
2022-10-21T04:59:33.439Z,95305.53
2022-10-21T05:04:34.857Z,95329.97
2022-10-21T05:09:36.289Z,95327.53
2022-10-21T05:14:37.681Z,95320.09
2022-10-21T05:19:39.050Z,95295.03
2022-10-21T05:24:40.443Z,95290.06
2022-10-21T05:29:41.850Z,95281.44
2022-10-21T05:34:43.242Z,95275.47
2022-10-21T05:39:44.935Z,95291.75
2022-10-21T05:44:46.436Z,95284.78
2022-10-21T05:49:47.821Z,95295.56
2022-10-21T05:54:49.261Z,95300.22
2022-10-21T05:59:50.652Z,95301.72
2022-10-21T06:04:52.047Z,95301.72
2022-10-21T06:09:54.868Z,95280.66
2022-10-21T06:14:56.717Z,95270.19
2022-10-21T06:19:58.126Z,95261.41
2022-10-21T06:24:59.525Z,95270.69
2022-10-21T06:30:00.946Z,95275.69
2022-10-21T06:35:02.445Z,95289.78
2022-10-21T06:40:04.168Z,95310.63
2022-10-21T06:45:06.130Z,95337.53
2022-10-21T06:50:07.994Z,95398.75
2022-10-21T06:55:09.810Z,95435.75
2022-10-21T07:00:12.500Z,95461.97
2022-10-21T07:05:13.980Z,95485.19
2022-10-21T07:10:15.523Z,95498.63
2022-10-21T07:15:16.991Z,95507.41
2022-10-21T07:20:18.449Z,95521.31
2022-10-21T07:25:20.161Z,95523.66
2022-10-21T07:30:21.655Z,95523.84
2022-10-21T07:35:23.669Z,95442.16
2022-10-21T07:40:25.086Z,95447.13
2022-10-21T07:45:26.513Z,95474.53
2022-10-21T07:50:28.014Z,95436.50
2022-10-21T07:55:29.892Z,95440.00
2022-10-21T08:00:31.324Z,95426.94
2022-10-21T08:05:32.709Z,95436.53
2022-10-21T08:10:39.621Z,95418.53
2022-10-21T08:15:45.123Z,95430.47
2022-10-21T08:20:47.514Z,95451.66
2022-10-21T08:25:54.107Z,95450.50
2022-10-21T08:31:08.974Z,95450.66
2022-10-21T08:36:20.471Z,95463.75
2022-10-21T08:41:30.957Z,95473.88
2022-10-21T08:46:37.716Z,95502.25
2022-10-21T08:51:49.507Z,95514.53
2022-10-21T08:56:55.907Z,95531.75
2022-10-21T09:01:57.251Z,95588.78
2022-10-21T09:07:25.454Z,95593.91
2022-10-21T09:12:52.157Z,95603.63
2022-10-21T09:18:22.769Z,95604.78
2022-10-21T09:23:45.289Z,95614.19
2022-10-21T09:28:48.034Z,95619.13
2022-10-21T09:34:02.425Z,95616.06
2022-10-21T09:39:12.690Z,95616.88
2022-10-21T09:44:18.390Z,95616.53
2022-10-21T09:50:01.721Z,95605.78
2022-10-21T09:54:52.921Z,95609.66
2022-10-21T10:00:02.239Z,95604.81
2022-10-21T10:05:41.778Z,95619.19
2022-10-21T10:10:43.151Z,95619.00
2022-10-21T10:15:44.619Z,95616.63
2022-10-21T10:20:46.008Z,95629.44
2022-10-21T10:25:50.930Z,95629.59
2022-10-21T10:30:55.616Z,95629.91
2022-10-21T10:36:05.211Z,95619.34
2022-10-21T10:41:14.313Z,95613.00
2022-10-21T10:46:24.642Z,95611.44
2022-10-21T10:51:32.620Z,95604.41
2022-10-21T10:56:43.182Z,95598.88
2022-10-21T11:02:07.864Z,95586.97
2022-10-21T11:07:28.959Z,95585.50
2022-10-21T11:12:30.799Z,95597.00
2022-10-21T11:17:40.663Z,95598.50
2022-10-21T11:23:01.800Z,95587.63
2022-10-21T11:28:34.136Z,95585.97
2022-10-21T11:34:18.250Z,95592.13
2022-10-21T11:39:31.915Z,95588.00
2022-10-21T11:44:46.234Z,95588.56
2022-10-21T11:50:02.559Z,95584.50
2022-10-21T11:55:34.335Z,95586.28
2022-10-21T12:00:48.703Z,95573.81
2022-10-21T12:06:04.698Z,95592.47
2022-10-21T12:11:12.566Z,95579.47
2022-10-21T12:16:20.408Z,95581.03
2022-10-21T12:21:26.344Z,95580.34
2022-10-21T12:26:40.489Z,95571.22
2022-10-21T12:32:00.881Z,95554.41
2022-10-21T12:37:02.328Z,95553.41
2022-10-21T12:42:13.405Z,95542.47
2022-10-21T12:47:24.895Z,95544.84
2022-10-21T12:52:26.304Z,95537.59
2022-10-21T12:57:34.723Z,95537.59
2022-10-21T13:02:55.760Z,95543.75
2022-10-21T13:08:44.365Z,95536.28
2022-10-21T13:13:47.629Z,95543.19
2022-10-21T13:18:58.039Z,95548.78
2022-10-21T13:24:11.777Z,95552.81
2022-10-21T13:29:16.197Z,95551.34
2022-10-21T13:34:27.806Z,95543.06
2022-10-21T13:39:33.564Z,95545.63
2022-10-21T13:44:40.260Z,95540.66
2022-10-21T13:49:41.637Z,95545.34
2022-10-21T14:00:04.789Z,95539.53
2022-10-21T14:05:25.924Z,95553.69
2022-10-21T14:10:29.398Z,95550.66
2022-10-21T14:15:38.125Z,95548.94
2022-10-21T14:20:40.805Z,95561.69
2022-10-21T14:25:42.330Z,95579.59
2022-10-21T14:30:43.819Z,95572.97
2022-10-21T14:36:04.512Z,95568.19
2022-10-21T14:41:12.882Z,95571.47
2022-10-21T14:46:14.338Z,95553.22
2022-10-21T14:51:20.496Z,95559.06
2022-10-21T14:56:33.759Z,95551.44
2022-10-21T15:01:35.320Z,95564.75
2022-10-21T15:06:36.761Z,95552.72
2022-10-21T15:11:46.372Z,95541.06
2022-10-21T15:17:03.334Z,95549.22
2022-10-21T15:22:05.886Z,95560.19
2022-10-21T15:27:15.860Z,95565.72
2022-10-21T15:32:17.308Z,95566.09
2022-10-21T15:37:19.686Z,95568.84
2022-10-21T15:42:21.098Z,95560.41
2022-10-21T15:47:22.498Z,95551.91
2022-10-21T15:52:23.907Z,95542.94
2022-10-21T15:57:25.309Z,95557.78
2022-10-21T16:02:26.722Z,95545.19
2022-10-21T16:07:29.067Z,95544.56
2022-10-21T16:12:30.460Z,95543.22
2022-10-21T16:17:31.878Z,95551.78
2022-10-21T16:22:33.249Z,95550.50
2022-10-21T16:27:51.035Z,95544.03
2022-10-21T16:32:56.354Z,95545.88
2022-10-21T16:37:57.821Z,95540.91
2022-10-21T16:42:59.219Z,95535.75
2022-10-21T16:48:03.250Z,95533.94
2022-10-21T16:53:05.727Z,95535.44
2022-10-21T16:58:07.230Z,95527.81
2022-10-21T17:03:11.613Z,95518.50
2022-10-21T17:08:13.038Z,95527.19
2022-10-21T17:13:14.473Z,95505.75
2022-10-21T17:18:16.025Z,95490.44
2022-10-21T17:23:17.475Z,95479.66
2022-10-21T17:28:18.870Z,95477.16
2022-10-21T17:33:20.259Z,95473.50
2022-10-21T17:38:21.698Z,95460.88
2022-10-21T17:43:23.104Z,95449.72
2022-10-21T17:48:24.526Z,95456.69
2022-10-21T17:53:27.659Z,95469.19
2022-10-21T17:58:29.789Z,95468.72
2022-10-21T18:03:31.203Z,95457.41
2022-10-21T18:08:32.750Z,95471.00
2022-10-21T18:13:34.545Z,95468.72
2022-10-21T18:18:36.895Z,95469.06
2022-10-21T18:23:40.649Z,95464.09
2022-10-21T18:28:42.114Z,95451.63
2022-10-21T18:33:43.495Z,95450.63
2022-10-21T18:38:45.082Z,95458.06
2022-10-21T18:43:53.202Z,95442.50
2022-10-21T18:48:54.795Z,95440.47
2022-10-21T18:53:56.518Z,95446.28
2022-10-21T18:58:57.931Z,95443.13
2022-10-21T19:03:59.376Z,95440.31
2022-10-21T19:09:02.144Z,95453.13
2022-10-21T19:14:03.618Z,95465.44
2022-10-21T19:19:05.459Z,95470.13
2022-10-21T19:24:07.520Z,95465.47
2022-10-21T19:29:12.421Z,95475.75
2022-10-21T19:34:21.470Z,95459.97
2022-10-21T19:39:22.901Z,95470.75
2022-10-21T19:44:24.299Z,95479.41
2022-10-21T19:49:25.683Z,95472.78
2022-10-21T19:54:27.080Z,95478.44
2022-10-21T19:59:28.485Z,95471.81
2022-10-21T20:04:32.548Z,95467.81
2022-10-21T20:09:38.843Z,95469.94
2022-10-21T20:14:40.503Z,95486.72
2022-10-21T20:19:41.893Z,95494.72
2022-10-21T20:24:46.263Z,95499.69
2022-10-21T20:29:47.988Z,95519.94
2022-10-21T20:34:49.387Z,95508.84
2022-10-21T20:39:50.860Z,95481.44
2022-10-21T20:44:52.269Z,95478.44
2022-10-21T20:49:53.744Z,95495.72
2022-10-21T20:54:55.137Z,95499.03
2022-10-21T20:59:56.508Z,95496.88
2022-10-21T21:04:57.890Z,95495.94
2022-10-21T21:10:02.839Z,95473.03
2022-10-21T21:15:05.321Z,95483.16
2022-10-21T21:20:07.534Z,95478.84
2022-10-21T21:25:09.716Z,95465.06
2022-10-21T21:30:11.531Z,95471.69
2022-10-21T21:35:12.960Z,95480.31
2022-10-21T21:40:14.330Z,95480.16
2022-10-21T21:45:15.695Z,95477.84
2022-10-21T21:50:17.101Z,95474.16
2022-10-21T21:55:18.487Z,95479.47
2022-10-21T22:00:19.850Z,95476.69
2022-10-21T22:05:26.146Z,95498.91
2022-10-21T22:10:29.316Z,95527.31
2022-10-21T22:15:46.917Z,95535.63
2022-10-21T22:26:14.052Z,95545.41
2022-10-21T22:31:17.828Z,95553.88
2022-10-21T22:36:19.243Z,95543.19
2022-10-21T22:46:44.357Z,95548.56
2022-10-21T22:51:45.753Z,95553.88
2022-10-21T22:56:47.683Z,95563.00
2022-10-21T23:01:49.083Z,95548.22
2022-10-21T23:06:50.490Z,95550.22
2022-10-21T23:11:51.860Z,95549.03
2022-10-21T23:16:53.288Z,95561.84
2022-10-21T23:21:54.694Z,95559.19
2022-10-21T23:26:59.105Z,95550.53
2022-10-21T23:32:03.494Z,95562.66
2022-10-21T23:37:04.897Z,95580.25
2022-10-21T23:42:06.277Z,95589.88
2022-10-21T23:47:07.661Z,95625.41
2022-10-21T23:52:09.205Z,95647.81
2022-10-21T23:57:10.599Z,95688.66
